sensor_id;sensor_type;location;lat;lon;timestamp;pressure;altitude;pressure_sealevel;temperature;humidity
65546;BME280;52177;55.968;37.498;2023-05-16T00:00:08;100357.22;;;8.91;66.15
65546;BME280;52177;55.968;37.498;2023-05-16T00:00:38;100353.84;;;8.89;66.33
65546;BME280;52177;55.968;37.498;2023-05-16T00:01:09;100354.69;;;8.90;66.46
65546;BME280;52177;55.968;37.498;2023-05-16T00:01:39;100355.38;;;8.92;66.15
65546;BME280;52177;55.968;37.498;2023-05-16T00:02:10;100356.38;;;8.91;66.23
65546;BME280;52177;55.968;37.498;2023-05-16T00:02:40;100353.84;;;8.89;66.35
65546;BME280;52177;55.968;37.498;2023-05-16T00:03:11;100348.53;;;8.89;66.20
65546;BME280;52177;55.968;37.498;2023-05-16T00:03:41;100359.47;;;8.86;66.33
65546;BME280;52177;55.968;37.498;2023-05-16T00:04:12;100359.78;;;8.83;66.41
65546;BME280;52177;55.968;37.498;2023-05-16T00:04:42;100354.75;;;8.80;66.25
65546;BME280;52177;55.968;37.498;2023-05-16T00:05:12;100356.72;;;8.78;66.58
65546;BME280;52177;55.968;37.498;2023-05-16T00:05:46;100355.06;;;8.77;66.35
65546;BME280;52177;55.968;37.498;2023-05-16T00:06:17;100348.91;;;8.76;66.50
65546;BME280;52177;55.968;37.498;2023-05-16T00:06:47;100351.56;;;8.76;66.46
65546;BME280;52177;55.968;37.498;2023-05-16T00:07:17;100354.22;;;8.76;66.29
65546;BME280;52177;55.968;37.498;2023-05-16T00:07:48;100355.06;;;8.77;66.56
65546;BME280;52177;55.968;37.498;2023-05-16T00:08:18;100356.88;;;8.76;66.52
65546;BME280;52177;55.968;37.498;2023-05-16T00:08:48;100353.41;;;8.76;66.34
65546;BME280;52177;55.968;37.498;2023-05-16T00:09:19;100350.75;;;8.76;66.49
65546;BME280;52177;55.968;37.498;2023-05-16T00:09:49;100350.88;;;8.74;66.62
65546;BME280;52177;55.968;37.498;2023-05-16T00:10:20;100350.06;;;8.74;66.46
65546;BME280;52177;55.968;37.498;2023-05-16T00:10:50;100362.34;;;8.75;66.44
65546;BME280;52177;55.968;37.498;2023-05-16T00:11:20;100357.84;;;8.75;66.55
65546;BME280;52177;55.968;37.498;2023-05-16T00:11:51;100351.72;;;8.75;66.33
65546;BME280;52177;55.968;37.498;2023-05-16T00:12:21;100350.88;;;8.74;66.27
65546;BME280;52177;55.968;37.498;2023-05-16T00:12:52;100353.41;;;8.76;66.34
65546;BME280;52177;55.968;37.498;2023-05-16T00:13:22;100347.09;;;8.77;66.34
65546;BME280;52177;55.968;37.498;2023-05-16T00:13:54;100353.22;;;8.77;66.40
65546;BME280;52177;55.968;37.498;2023-05-16T00:14:25;100354.06;;;8.78;66.04
65546;BME280;52177;55.968;37.498;2023-05-16T00:14:56;100354.06;;;8.78;66.17
65546;BME280;52177;55.968;37.498;2023-05-16T00:15:26;100349.06;;;8.75;66.04
65546;BME280;52177;55.968;37.498;2023-05-16T00:15:58;100359.81;;;8.73;66.27
65546;BME280;52177;55.968;37.498;2023-05-16T00:16:31;100352.16;;;8.70;66.31
65546;BME280;52177;55.968;37.498;2023-05-16T00:17:02;100348.97;;;8.66;66.68
65546;BME280;52177;55.968;37.498;2023-05-16T00:17:34;100348.13;;;8.66;66.82
65546;BME280;52177;55.968;37.498;2023-05-16T00:18:04;100351.78;;;8.65;66.81
65546;BME280;52177;55.968;37.498;2023-05-16T00:18:35;100350.09;;;8.64;66.83
65546;BME280;52177;55.968;37.498;2023-05-16T00:19:08;100347.59;;;8.62;66.95
65546;BME280;52177;55.968;37.498;2023-05-16T00:19:39;100352.91;;;8.62;66.95
65546;BME280;52177;55.968;37.498;2023-05-16T00:20:13;100348.41;;;8.63;66.98
65546;BME280;52177;55.968;37.498;2023-05-16T00:20:47;100346.75;;;8.62;66.79
65546;BME280;52177;55.968;37.498;2023-05-16T00:21:18;100348.41;;;8.63;66.76
65546;BME280;52177;55.968;37.498;2023-05-16T00:21:48;100352.22;;;8.60;66.86
65546;BME280;52177;55.968;37.498;2023-05-16T00:22:18;100349.84;;;8.57;66.90
65546;BME280;52177;55.968;37.498;2023-05-16T00:22:49;100345.38;;;8.58;66.98
65546;BME280;52177;55.968;37.498;2023-05-16T00:23:20;100347.34;;;8.56;66.87
65546;BME280;52177;55.968;37.498;2023-05-16T00:23:51;100349.16;;;8.55;67.02
65546;BME280;52177;55.968;37.498;2023-05-16T00:24:21;100350.28;;;8.53;66.98
65546;BME280;52177;55.968;37.498;2023-05-16T00:24:52;100348.47;;;8.53;66.77
65546;BME280;52177;55.968;37.498;2023-05-16T00:25:22;100348.59;;;8.52;66.73
65546;BME280;52177;55.968;37.498;2023-05-16T00:25:53;100350.56;;;8.50;66.92
65546;BME280;52177;55.968;37.498;2023-05-16T00:26:23;100352.25;;;8.51;67.08
65546;BME280;52177;55.968;37.498;2023-05-16T00:26:53;100349.59;;;8.51;67.00
65546;BME280;52177;55.968;37.498;2023-05-16T00:27:24;100350.44;;;8.51;67.09
65546;BME280;52177;55.968;37.498;2023-05-16T00:27:54;100353.09;;;8.51;67.22
65546;BME280;52177;55.968;37.498;2023-05-16T00:28:24;100346.94;;;8.51;67.16
65546;BME280;52177;55.968;37.498;2023-05-16T00:28:55;100353.22;;;8.50;67.29
65546;BME280;52177;55.968;37.498;2023-05-16T00:29:25;100348.06;;;8.48;67.14
65546;BME280;52177;55.968;37.498;2023-05-16T00:29:55;100354.34;;;8.47;67.18
65546;BME280;52177;55.968;37.498;2023-05-16T00:30:26;100351.00;;;8.45;67.41
65546;BME280;52177;55.968;37.498;2023-05-16T00:30:56;100348.53;;;8.43;67.30
65546;BME280;52177;55.968;37.498;2023-05-16T00:31:26;100353.00;;;8.43;67.16
65546;BME280;52177;55.968;37.498;2023-05-16T00:31:57;100349.34;;;8.44;67.21
65546;BME280;52177;55.968;37.498;2023-05-16T00:32:27;100349.34;;;8.44;66.97
65546;BME280;52177;55.968;37.498;2023-05-16T00:32:58;100351.88;;;8.45;66.96
65546;BME280;52177;55.968;37.498;2023-05-16T00:33:28;100349.22;;;8.45;67.17
65546;BME280;52177;55.968;37.498;2023-05-16T00:33:58;100349.22;;;8.45;67.20
65546;BME280;52177;55.968;37.498;2023-05-16T00:34:29;100352.84;;;8.44;67.22
65546;BME280;52177;55.968;37.498;2023-05-16T00:34:59;100352.00;;;8.44;67.33
65546;BME280;52177;55.968;37.498;2023-05-16T00:35:29;100351.19;;;8.43;67.28
65546;BME280;52177;55.968;37.498;2023-05-16T00:36:00;100346.81;;;8.42;67.41
65546;BME280;52177;55.968;37.498;2023-05-16T00:36:30;100352.31;;;8.41;67.48
65546;BME280;52177;55.968;37.498;2023-05-16T00:37:00;100345.44;;;8.38;67.55
65546;BME280;52177;55.968;37.498;2023-05-16T00:37:31;100356.06;;;8.38;67.51
65546;BME280;52177;55.968;37.498;2023-05-16T00:38:01;100348.38;;;8.35;67.62
65546;BME280;52177;55.968;37.498;2023-05-16T00:38:31;100347.84;;;8.32;67.68
65546;BME280;52177;55.968;37.498;2023-05-16T00:39:02;100343.66;;;8.29;67.53
65546;BME280;52177;55.968;37.498;2023-05-16T00:39:33;100340.31;;;8.27;67.58
65546;BME280;52177;55.968;37.498;2023-05-16T00:40:04;100343.09;;;8.25;67.51
65546;BME280;52177;55.968;37.498;2023-05-16T00:40:34;100343.22;;;8.24;67.55
65546;BME280;52177;55.968;37.498;2023-05-16T00:41:05;100349.53;;;8.23;67.44
65546;BME280;52177;55.968;37.498;2023-05-16T00:41:35;100341.72;;;8.21;67.64
65546;BME280;52177;55.968;37.498;2023-05-16T00:42:05;100344.53;;;8.20;67.72
65546;BME280;52177;55.968;37.498;2023-05-16T00:42:37;100341.03;;;8.19;67.57
65546;BME280;52177;55.968;37.498;2023-05-16T00:43:08;100348.44;;;8.16;67.72
65546;BME280;52177;55.968;37.498;2023-05-16T00:43:38;100342.44;;;8.14;68.08
65546;BME280;52177;55.968;37.498;2023-05-16T00:44:09;100344.25;;;8.13;67.95
65546;BME280;52177;55.968;37.498;2023-05-16T00:44:39;100336.44;;;8.12;68.22
65546;BME280;52177;55.968;37.498;2023-05-16T00:45:10;100340.91;;;8.11;68.25
65546;BME280;52177;55.968;37.498;2023-05-16T00:45:41;100336.44;;;8.12;68.32
65546;BME280;52177;55.968;37.498;2023-05-16T00:46:11;100341.75;;;8.12;68.16
65546;BME280;52177;55.968;37.498;2023-05-16T00:46:41;100342.44;;;8.14;68.10
65546;BME280;52177;55.968;37.498;2023-05-16T00:47:12;100341.59;;;8.13;68.18
65546;BME280;52177;55.968;37.498;2023-05-16T00:47:42;100338.97;;;8.13;68.20
65546;BME280;52177;55.968;37.498;2023-05-16T00:48:13;100345.09;;;8.14;68.53
65546;BME280;52177;55.968;37.498;2023-05-16T00:48:44;100338.81;;;8.15;68.54
65546;BME280;52177;55.968;37.498;2023-05-16T00:49:15;100337.97;;;8.14;68.42
65546;BME280;52177;55.968;37.498;2023-05-16T00:49:45;100340.63;;;8.14;68.28
65546;BME280;52177;55.968;37.498;2023-05-16T00:50:17;100338.13;;;8.13;68.19
65546;BME280;52177;55.968;37.498;2023-05-16T00:50:47;100343.44;;;8.13;68.06
65546;BME280;52177;55.968;37.498;2023-05-16T00:51:18;100339.91;;;8.12;68.03
65546;BME280;52177;55.968;37.498;2023-05-16T00:51:49;100339.09;;;8.12;67.89
65546;BME280;52177;55.968;37.498;2023-05-16T00:52:21;100338.38;;;8.10;67.85
65546;BME280;52177;55.968;37.498;2023-05-16T00:52:51;100336.88;;;8.07;67.93
65546;BME280;52177;55.968;37.498;2023-05-16T00:53:23;100339.69;;;8.06;67.82
65546;BME280;52177;55.968;37.498;2023-05-16T00:53:54;100338.69;;;8.07;67.87
65546;BME280;52177;55.968;37.498;2023-05-16T00:54:25;100340.34;;;8.08;67.83
65546;BME280;52177;55.968;37.498;2023-05-16T00:54:58;100338.56;;;8.08;67.84
65546;BME280;52177;55.968;37.498;2023-05-16T00:55:29;100336.72;;;8.09;67.86
65546;BME280;52177;55.968;37.498;2023-05-16T00:55:59;100333.25;;;8.08;67.66
65546;BME280;52177;55.968;37.498;2023-05-16T00:56:30;100335.22;;;8.06;67.61
65546;BME280;52177;55.968;37.498;2023-05-16T00:57:00;100336.03;;;8.07;67.85
65546;BME280;52177;55.968;37.498;2023-05-16T00:57:31;100335.03;;;8.08;68.35
65546;BME280;52177;55.968;37.498;2023-05-16T00:58:01;100339.38;;;8.09;68.40
65546;BME280;52177;55.968;37.498;2023-05-16T00:58:32;100337.56;;;8.09;68.69
65546;BME280;52177;55.968;37.498;2023-05-16T00:59:03;100330.59;;;8.08;68.78
65546;BME280;52177;55.968;37.498;2023-05-16T00:59:33;100334.06;;;8.09;68.74
65546;BME280;52177;55.968;37.498;2023-05-16T01:00:05;100336.72;;;8.09;68.93
65546;BME280;52177;55.968;37.498;2023-05-16T01:00:36;100329.72;;;8.08;68.76
65546;BME280;52177;55.968;37.498;2023-05-16T01:01:06;100335.03;;;8.08;68.55
65546;BME280;52177;55.968;37.498;2023-05-16T01:01:37;100338.69;;;8.07;68.46
65546;BME280;52177;55.968;37.498;2023-05-16T01:02:09;100340.34;;;8.08;68.30
65546;BME280;52177;55.968;37.498;2023-05-16T01:02:40;100333.38;;;8.07;68.39
65546;BME280;52177;55.968;37.498;2023-05-16T01:03:11;100331.03;;;8.03;68.41
65546;BME280;52177;55.968;37.498;2023-05-16T01:03:41;100338.16;;;8.03;68.24
65546;BME280;52177;55.968;37.498;2023-05-16T01:04:16;100323.50;;;7.99;68.51
65546;BME280;52177;55.968;37.498;2023-05-16T01:04:47;100335.06;;;7.98;68.60
65546;BME280;52177;55.968;37.498;2023-05-16T01:05:19;100330.63;;;7.98;68.56
65546;BME280;52177;55.968;37.498;2023-05-16T01:05:49;100333.28;;;7.98;68.58
65546;BME280;52177;55.968;37.498;2023-05-16T01:06:20;100334.09;;;7.99;68.38
65546;BME280;52177;55.968;37.498;2023-05-16T01:06:50;100336.91;;;7.97;68.40
65546;BME280;52177;55.968;37.498;2023-05-16T01:07:21;100332.41;;;7.98;68.18
65546;BME280;52177;55.968;37.498;2023-05-16T01:07:51;100327.28;;;7.96;67.90
65546;BME280;52177;55.968;37.498;2023-05-16T01:08:22;100331.06;;;7.94;67.83
65546;BME280;52177;55.968;37.498;2023-05-16T01:08:53;100333.72;;;7.94;67.82
65546;BME280;52177;55.968;37.498;2023-05-16T01:09:23;100327.72;;;7.92;68.04
65546;BME280;52177;55.968;37.498;2023-05-16T01:09:54;100330.34;;;7.92;68.08
65546;BME280;52177;55.968;37.498;2023-05-16T01:10:29;100328.84;;;7.89;67.90
65546;BME280;52177;55.968;37.498;2023-05-16T01:11:23;100332.44;;;7.88;68.38
65546;BME280;52177;55.968;37.498;2023-05-16T01:12:08;100323.78;;;7.86;68.62
65546;BME280;52177;55.968;37.498;2023-05-16T01:15:24;100339.88;;;7.85;68.56
65546;BME280;52177;55.968;37.498;2023-05-16T01:16:09;100335.41;;;7.85;68.38
65546;BME280;52177;55.968;37.498;2023-05-16T01:18:05;100335.81;;;7.80;68.77
65546;BME280;52177;55.968;37.498;2023-05-16T01:19:39;100339.88;;;7.75;68.78
65546;BME280;52177;55.968;37.498;2023-05-16T01:22:29;100342.13;;;7.70;68.64
65546;BME280;52177;55.968;37.498;2023-05-16T01:23:15;100336.81;;;7.70;68.86
65546;BME280;52177;55.968;37.498;2023-05-16T01:25:40;100347.28;;;7.71;69.36
65546;BME280;52177;55.968;37.498;2023-05-16T01:26:24;100340.34;;;7.70;69.21
65546;BME280;52177;55.968;37.498;2023-05-16T01:26:58;100340.75;;;7.66;69.13
65546;BME280;52177;55.968;37.498;2023-05-16T01:27:29;100345.06;;;7.67;69.01
65546;BME280;52177;55.968;37.498;2023-05-16T01:28:01;100346.88;;;7.66;68.94
65546;BME280;52177;55.968;37.498;2023-05-16T01:28:33;100345.06;;;7.67;68.95
65546;BME280;52177;55.968;37.498;2023-05-16T01:29:03;100338.94;;;7.66;68.68
65546;BME280;52177;55.968;37.498;2023-05-16T01:29:34;100343.25;;;7.67;68.75
65546;BME280;52177;55.968;37.498;2023-05-16T01:30:18;100340.75;;;7.66;68.81
65546;BME280;52177;55.968;37.498;2023-05-16T01:30:49;100340.06;;;7.64;68.97
65546;BME280;52177;55.968;37.498;2023-05-16T01:31:21;100347.31;;;7.61;68.86
65546;BME280;52177;55.968;37.498;2023-05-16T01:31:51;100354.16;;;7.64;68.98
65546;BME280;52177;55.968;37.498;2023-05-16T01:32:22;100350.50;;;7.65;68.65
65546;BME280;52177;55.968;37.498;2023-05-16T01:32:52;100354.97;;;7.65;68.83
65546;BME280;52177;55.968;37.498;2023-05-16T01:33:22;100351.38;;;7.66;68.64
65546;BME280;52177;55.968;37.498;2023-05-16T01:33:53;100343.25;;;7.67;68.60
65546;BME280;52177;55.968;37.498;2023-05-16T01:34:23;100347.72;;;7.67;68.82
65546;BME280;52177;55.968;37.498;2023-05-16T01:34:53;100354.84;;;7.66;68.75
65546;BME280;52177;55.968;37.498;2023-05-16T01:35:24;100345.06;;;7.67;68.54
65546;BME280;52177;55.968;37.498;2023-05-16T01:36:01;100343.41;;;7.66;68.49
65546;BME280;52177;55.968;37.498;2023-05-16T01:37:37;100345.06;;;7.67;68.91
65546;BME280;52177;55.968;37.498;2023-05-16T01:38:17;100353.03;;;7.67;68.73
65546;BME280;52177;55.968;37.498;2023-05-16T01:39:13;100349.38;;;7.68;68.79
65546;BME280;52177;55.968;37.498;2023-05-16T01:39:56;100350.09;;;7.70;68.78
65546;BME280;52177;55.968;37.498;2023-05-16T01:40:35;100349.13;;;7.71;68.87
65546;BME280;52177;55.968;37.498;2023-05-16T01:41:18;100348.13;;;7.72;68.63
65546;BME280;52177;55.968;37.498;2023-05-16T01:41:58;100349.81;;;7.73;68.78
65546;BME280;52177;55.968;37.498;2023-05-16T01:42:34;100352.47;;;7.73;68.60
65546;BME280;52177;55.968;37.498;2023-05-16T01:43:10;100353.16;;;7.75;68.52
65546;BME280;52177;55.968;37.498;2023-05-16T01:43:43;100346.16;;;7.74;68.67
65546;BME280;52177;55.968;37.498;2023-05-16T01:45:14;100344.22;;;7.76;68.39
65546;BME280;52177;55.968;37.498;2023-05-16T01:45:52;100347.56;;;7.78;68.67
65546;BME280;52177;55.968;37.498;2023-05-16T01:46:26;100351.88;;;7.79;68.67
65546;BME280;52177;55.968;37.498;2023-05-16T01:47:01;100348.28;;;7.80;68.83
65546;BME280;52177;55.968;37.498;2023-05-16T01:47:35;100350.94;;;7.80;68.63
65546;BME280;52177;55.968;37.498;2023-05-16T01:48:16;100350.06;;;7.79;68.75
65546;BME280;52177;55.968;37.498;2023-05-16T01:49:57;100347.56;;;7.78;69.13
65546;BME280;52177;55.968;37.498;2023-05-16T01:50:32;100344.09;;;7.77;69.18
65546;BME280;52177;55.968;37.498;2023-05-16T01:51:03;100344.75;;;7.79;69.15
65546;BME280;52177;55.968;37.498;2023-05-16T01:51:36;100344.91;;;7.78;69.16
65546;BME280;52177;55.968;37.498;2023-05-16T01:52:12;100343.78;;;7.80;69.18
65546;BME280;52177;55.968;37.498;2023-05-16T01:52:49;100348.97;;;7.82;69.36
65546;BME280;52177;55.968;37.498;2023-05-16T01:53:28;100352.28;;;7.84;69.47
65546;BME280;52177;55.968;37.498;2023-05-16T01:54:05;100349.38;;;7.87;69.46
65546;BME280;52177;55.968;37.498;2023-05-16T01:54:42;100355.38;;;7.89;69.69
65546;BME280;52177;55.968;37.498;2023-05-16T01:55:17;100344.47;;;7.92;69.71
65546;BME280;52177;55.968;37.498;2023-05-16T01:55:55;100352.13;;;7.95;69.89
65546;BME280;52177;55.968;37.498;2023-05-16T01:56:27;100354.66;;;7.97;69.84
65546;BME280;52177;55.968;37.498;2023-05-16T01:56:59;100349.22;;;7.98;69.98
65546;BME280;52177;55.968;37.498;2023-05-16T01:57:30;100350.19;;;7.97;70.00
65546;BME280;52177;55.968;37.498;2023-05-16T01:58:03;100355.34;;;7.99;69.96
65546;BME280;52177;55.968;37.498;2023-05-16T01:58:34;100354.22;;;8.01;70.14
65546;BME280;52177;55.968;37.498;2023-05-16T01:59:07;100350.56;;;8.02;70.26
65546;BME280;52177;55.968;37.498;2023-05-16T01:59:40;100352.28;;;8.03;70.27
65546;BME280;52177;55.968;37.498;2023-05-16T02:00:12;100350.31;;;8.06;70.26
65546;BME280;52177;55.968;37.498;2023-05-16T02:00:42;100353.78;;;8.06;70.10
65546;BME280;52177;55.968;37.498;2023-05-16T02:01:13;100343.88;;;8.08;70.27
65546;BME280;52177;55.968;37.498;2023-05-16T02:01:44;100347.22;;;8.10;70.22
65546;BME280;52177;55.968;37.498;2023-05-16T02:02:17;100351.53;;;8.11;70.37
65546;BME280;52177;55.968;37.498;2023-05-16T02:02:47;100343.44;;;8.13;70.56
65546;BME280;52177;55.968;37.498;2023-05-16T02:03:18;100352.94;;;8.15;70.51
65546;BME280;52177;55.968;37.498;2023-05-16T02:03:48;100348.59;;;8.14;70.70
65546;BME280;52177;55.968;37.498;2023-05-16T02:04:18;100352.09;;;8.15;70.51
65546;BME280;52177;55.968;37.498;2023-05-16T02:04:49;100345.94;;;8.14;70.38
65546;BME280;52177;55.968;37.498;2023-05-16T02:05:20;100350.09;;;8.17;70.58
65546;BME280;52177;55.968;37.498;2023-05-16T02:05:50;100349.28;;;8.16;70.53
65546;BME280;52177;55.968;37.498;2023-05-16T02:06:21;100346.50;;;8.18;70.45
65546;BME280;52177;55.968;37.498;2023-05-16T02:06:53;100347.19;;;8.20;70.41
65546;BME280;52177;55.968;37.498;2023-05-16T02:07:24;100342.56;;;8.22;70.18
65546;BME280;52177;55.968;37.498;2023-05-16T02:07:54;100343.22;;;8.24;70.19
65546;BME280;52177;55.968;37.498;2023-05-16T02:08:26;100349.25;;;8.26;70.10
65546;BME280;52177;55.968;37.498;2023-05-16T02:08:56;100346.59;;;8.26;70.10
65546;BME280;52177;55.968;37.498;2023-05-16T02:09:27;100345.63;;;8.27;70.18
65546;BME280;52177;55.968;37.498;2023-05-16T02:09:57;100344.63;;;8.28;70.03
65546;BME280;52177;55.968;37.498;2023-05-16T02:10:27;100341.84;;;8.30;70.08
65546;BME280;52177;55.968;37.498;2023-05-16T02:10:58;100347.16;;;8.30;69.95
65546;BME280;52177;55.968;37.498;2023-05-16T02:11:28;100340.00;;;8.30;69.83
65546;BME280;52177;55.968;37.498;2023-05-16T02:11:58;100344.50;;;8.30;69.84
65546;BME280;52177;55.968;37.498;2023-05-16T02:12:29;100344.50;;;8.30;69.87
65546;BME280;52177;55.968;37.498;2023-05-16T02:13:00;100339.16;;;8.30;69.96
65546;BME280;52177;55.968;37.498;2023-05-16T02:13:30;100339.16;;;8.30;69.84
65546;BME280;52177;55.968;37.498;2023-05-16T02:14:00;100341.84;;;8.30;70.05
65546;BME280;52177;55.968;37.498;2023-05-16T02:14:31;100344.34;;;8.31;70.00
65546;BME280;52177;55.968;37.498;2023-05-16T02:15:01;100346.84;;;8.33;69.98
65546;BME280;52177;55.968;37.498;2023-05-16T02:15:32;100346.00;;;8.32;70.03
65546;BME280;52177;55.968;37.498;2023-05-16T02:16:02;100340.69;;;8.32;69.83
65546;BME280;52177;55.968;37.498;2023-05-16T02:16:33;100345.00;;;8.33;69.84
65546;BME280;52177;55.968;37.498;2023-05-16T02:17:03;100350.31;;;8.33;69.92
65546;BME280;52177;55.968;37.498;2023-05-16T02:17:34;100352.84;;;8.35;70.08
65546;BME280;52177;55.968;37.498;2023-05-16T02:18:04;100344.06;;;8.34;69.81
65546;BME280;52177;55.968;37.498;2023-05-16T02:18:35;100354.53;;;8.36;69.71
65546;BME280;52177;55.968;37.498;2023-05-16T02:19:05;100350.19;;;8.35;69.75
65546;BME280;52177;55.968;37.498;2023-05-16T02:19:35;100348.38;;;8.35;69.80
65546;BME280;52177;55.968;37.498;2023-05-16T02:20:06;100348.22;;;8.37;70.10
65546;BME280;52177;55.968;37.498;2023-05-16T02:20:40;100343.75;;;8.37;70.01
65546;BME280;52177;55.968;37.498;2023-05-16T02:21:10;100350.75;;;8.38;69.87
65546;BME280;52177;55.968;37.498;2023-05-16T02:21:41;100353.41;;;8.38;69.86
65546;BME280;52177;55.968;37.498;2023-05-16T02:22:11;100352.41;;;8.39;70.10
65546;BME280;52177;55.968;37.498;2023-05-16T02:22:41;100347.81;;;8.41;69.95
65546;BME280;52177;55.968;37.498;2023-05-16T02:23:13;100354.66;;;8.44;70.02
65546;BME280;52177;55.968;37.498;2023-05-16T02:23:43;100352.84;;;8.44;70.03
65546;BME280;52177;55.968;37.498;2023-05-16T02:24:13;100355.34;;;8.46;70.19
65546;BME280;52177;55.968;37.498;2023-05-16T02:24:44;100355.22;;;8.48;70.20
65546;BME280;52177;55.968;37.498;2023-05-16T02:25:14;100360.22;;;8.51;70.11
65546;BME280;52177;55.968;37.498;2023-05-16T02:25:45;100356.56;;;8.52;70.12
65546;BME280;52177;55.968;37.498;2023-05-16T02:26:15;100351.13;;;8.53;70.21
65546;BME280;52177;55.968;37.498;2023-05-16T02:26:45;100356.31;;;8.55;70.07
65546;BME280;52177;55.968;37.498;2023-05-16T02:27:16;100353.66;;;8.55;70.12
65546;BME280;52177;55.968;37.498;2023-05-16T02:27:46;100356.97;;;8.57;70.04
65546;BME280;52177;55.968;37.498;2023-05-16T02:28:16;100353.34;;;8.58;69.96
65546;BME280;52177;55.968;37.498;2023-05-16T02:28:47;100355.16;;;8.57;69.88
65546;BME280;52177;55.968;37.498;2023-05-16T02:29:19;100355.88;;;8.59;70.09
65546;BME280;52177;55.968;37.498;2023-05-16T02:29:49;100362.00;;;8.60;69.99
65546;BME280;52177;55.968;37.498;2023-05-16T02:30:19;100351.22;;;8.61;70.10
65546;BME280;52177;55.968;37.498;2023-05-16T02:31:08;100358.09;;;8.64;69.95
65546;BME280;52177;55.968;37.498;2023-05-16T02:31:38;100351.78;;;8.65;69.98
65546;BME280;52177;55.968;37.498;2023-05-16T02:32:09;100352.59;;;8.65;69.95
65546;BME280;52177;55.968;37.498;2023-05-16T02:32:39;100348.13;;;8.66;70.04
65546;BME280;52177;55.968;37.498;2023-05-16T02:33:10;100351.47;;;8.68;70.03
65546;BME280;52177;55.968;37.498;2023-05-16T02:33:40;100353.16;;;8.69;70.20
65546;BME280;52177;55.968;37.498;2023-05-16T02:34:11;100355.63;;;8.71;70.14
65546;BME280;52177;55.968;37.498;2023-05-16T02:34:41;100355.38;;;8.74;70.22
65546;BME280;52177;55.968;37.498;2023-05-16T02:35:12;100361.22;;;8.77;70.09
65546;BME280;52177;55.968;37.498;2023-05-16T02:35:42;100354.75;;;8.80;70.08
65546;BME280;52177;55.968;37.498;2023-05-16T02:36:12;100358.94;;;8.82;69.95
65546;BME280;52177;55.968;37.498;2023-05-16T02:36:43;100356.13;;;8.84;70.02
65546;BME280;52177;55.968;37.498;2023-05-16T02:37:13;100352.34;;;8.86;69.96
65546;BME280;52177;55.968;37.498;2023-05-16T02:37:43;100352.19;;;8.88;69.86
65546;BME280;52177;55.968;37.498;2023-05-16T02:38:14;100348.41;;;8.91;69.80
65546;BME280;52177;55.968;37.498;2023-05-16T02:38:46;100355.25;;;8.93;69.94
65546;BME280;52177;55.968;37.498;2023-05-16T02:39:17;100355.09;;;8.95;69.83
65546;BME280;52177;55.968;37.498;2023-05-16T02:39:47;100357.44;;;8.98;69.80
65546;BME280;52177;55.968;37.498;2023-05-16T02:40:18;100358.13;;;9.00;69.76
65546;BME280;52177;55.968;37.498;2023-05-16T02:40:49;100361.31;;;9.03;69.62
65546;BME280;52177;55.968;37.498;2023-05-16T02:41:19;100358.53;;;9.05;69.70
65546;BME280;52177;55.968;37.498;2023-05-16T02:41:51;100365.38;;;9.07;69.67
65546;BME280;52177;55.968;37.498;2023-05-16T02:42:21;100359.72;;;9.11;69.64
65546;BME280;52177;55.968;37.498;2023-05-16T02:42:51;100350.78;;;9.12;69.67
65546;BME280;52177;55.968;37.498;2023-05-16T02:43:22;100355.78;;;9.15;69.64
65546;BME280;52177;55.968;37.498;2023-05-16T02:43:52;100352.00;;;9.17;69.60
65546;BME280;52177;55.968;37.498;2023-05-16T02:44:23;100355.34;;;9.19;69.45
65546;BME280;52177;55.968;37.498;2023-05-16T02:44:53;100357.03;;;9.20;69.51
65546;BME280;52177;55.968;37.498;2023-05-16T02:45:24;100364.69;;;9.23;69.44
65546;BME280;52177;55.968;37.498;2023-05-16T02:45:54;100360.06;;;9.25;69.41
65546;BME280;52177;55.968;37.498;2023-05-16T02:46:33;100359.88;;;9.27;69.60
65546;BME280;52177;55.968;37.498;2023-05-16T02:47:03;100358.09;;;9.27;69.53
65546;BME280;52177;55.968;37.498;2023-05-16T02:47:34;100354.44;;;9.28;69.62
65546;BME280;52177;55.968;37.498;2023-05-16T02:48:04;100356.94;;;9.30;69.61
65546;BME280;52177;55.968;37.498;2023-05-16T02:48:35;100355.13;;;9.30;69.54
65546;BME280;52177;55.968;37.498;2023-05-16T02:49:05;100360.13;;;9.34;69.65
65546;BME280;52177;55.968;37.498;2023-05-16T02:49:35;100360.81;;;9.36;69.72
65546;BME280;52177;55.968;37.498;2023-05-16T02:50:06;100357.31;;;9.35;69.61
65546;BME280;52177;55.968;37.498;2023-05-16T02:50:36;100355.34;;;9.37;69.51
65546;BME280;52177;55.968;37.498;2023-05-16T02:51:09;100359.53;;;9.40;69.66
65546;BME280;52177;55.968;37.498;2023-05-16T02:51:39;100354.06;;;9.41;69.60
65546;BME280;52177;55.968;37.498;2023-05-16T02:52:10;100360.03;;;9.43;69.50
65546;BME280;52177;55.968;37.498;2023-05-16T02:52:41;100359.91;;;9.45;69.74
65546;BME280;52177;55.968;37.498;2023-05-16T02:53:11;100359.75;;;9.46;69.69
65546;BME280;52177;55.968;37.498;2023-05-16T02:53:41;100363.25;;;9.47;69.83
65546;BME280;52177;55.968;37.498;2023-05-16T02:54:12;100359.44;;;9.49;69.72
65546;BME280;52177;55.968;37.498;2023-05-16T02:54:42;100360.13;;;9.51;69.63
65546;BME280;52177;55.968;37.498;2023-05-16T02:55:13;100357.31;;;9.53;69.69
65546;BME280;52177;55.968;37.498;2023-05-16T02:55:43;100357.97;;;9.55;69.68
65546;BME280;52177;55.968;37.498;2023-05-16T02:56:14;100353.34;;;9.57;69.69
65546;BME280;52177;55.968;37.498;2023-05-16T02:56:45;100353.06;;;9.60;69.52
65546;BME280;52177;55.968;37.498;2023-05-16T02:57:15;100356.41;;;9.62;69.56
65546;BME280;52177;55.968;37.498;2023-05-16T02:57:45;100359.56;;;9.66;69.52
65546;BME280;52177;55.968;37.498;2023-05-16T02:58:16;100353.94;;;9.69;69.57